Terminal Aerodrome Forecast
Issued by NWS

Current Version | Previous Version | Graphics & Text | Print | Product List | Glossary On
Versions: 1 2 3 4 5 6 7 8 9 10 11 12 13 14 15 16 17 18
018
FTUS41 KPBZ 251737
TAFHLG
TAF
KHLG 251737Z 2518/2618 02004KT P6SM BKN030
     FM252100 36005KT P6SM SCT035
     FM260900 00000KT 4SM BR SKC
     FM261100 00000KT 2SM BR FEW008
     FM261300 00000KT P6SM FEW200=

USA.gov is the U.S. government's official web portal to all federal, state and local government web resources and services.